Time;durP1;ratioP1;P1;durP2;ratioP2;P2;SDS_P1;SDS_P2;PMS_P1;PMS_P2;Temp;Humidity;BMP_temperature;BMP_pressure;BME280_temperature;BME280_humidity;BME280_pressure;Samples;Min_cycle;Max_cycle;Signal;HPM_P1;HPM_P2
2023/10/29 00:01:05;;;;;;;;;;;;;;;;;;5014656;28;20047;-76
2023/10/29 00:03:32;;;;;;;;;;;;;;;;;;5014052;28;19972;-76
2023/10/29 00:05:59;;;;;;;;;;;;;;;;;;5011353;28;19976;-76
2023/10/29 00:08:26;;;;;;;;;;;;;;;;;;5014588;28;19925;-76
2023/10/29 00:10:53;;;;;;;;;;;;;;;;;;5015666;28;20396;-77
2023/10/29 00:13:23;;;;;;;;;;;;;;;;;;5014467;28;20016;-76
2023/10/29 00:15:50;;;;;;;;;;;;;;;;;;5014690;28;19965;-75
2023/10/29 00:18:18;;;;;;;;;;;;;;;;;;5013922;28;19932;-75
2023/10/29 00:20:45;;;;;;;;;;;;;;;;;;5008910;28;19988;-76
2023/10/29 00:23:13;;;;;;;;;;;;;;;;;;5013623;28;19925;-76
2023/10/29 00:25:40;;;;;;;;;;;;;;;;;;5014574;28;20081;-76
2023/10/29 00:28:07;;;;;;;;;;;;;;;;;;5015265;28;20100;-76
2023/10/29 00:30:34;;;;;;;;;;;;;;;;;;5009850;28;19931;-77
2023/10/29 00:33:01;;;;;;;;;;;;;;;;;;5013152;28;19968;-77
2023/10/29 00:35:28;;;;;;;;;;;;;;;;;;5013752;28;19961;-76
2023/10/29 00:37:55;;;;;;;;;;;;;;;;;;5013209;28;20024;-76
2023/10/29 00:40:23;;;;;;;;;;;;;;;;;;5014721;28;20397;-77
2023/10/29 00:42:50;;;;;;;;;;;;;;;;;;5013932;28;20299;-76
2023/10/29 00:45:17;;;;;;;;;;;;;;;;;;5018913;28;20020;-76
2023/10/29 00:47:44;;;;;;;;;;;;;;;;;;5001909;28;19965;-76
2023/10/29 00:50:11;;;;;;;;;;;;;;;;;;5014246;28;19930;-76
2023/10/29 00:52:38;;;;;;;;;;;;;;;;;;5012483;28;19981;-76
2023/10/29 00:55:05;;;;;;;;;;;;;;;;;;5013180;28;19981;-76
2023/10/29 00:57:32;;;;;;;;;;;;;;;;;;5014366;28;20008;-75
2023/10/29 00:59:59;;;;;;;;;;;;;;;;;;5014165;28;20408;-75
2023/10/29 01:02:26;;;;;;;;;;;;;;;;;;5013821;28;19925;-75
2023/10/29 01:04:53;;;;;;;;;;;;;;;;;;5012417;28;19926;-75
2023/10/29 01:07:20;;;;;;;;;;;;;;;;;;5014003;28;19929;-75
2023/10/29 01:09:46;;;;;;;;;;;;;;;;;;5013604;28;19925;-76
2023/10/29 01:12:14;;;;;;;;;;;;;;;;;;5014093;28;20372;-76
2023/10/29 01:14:41;;;;;;;;;;;;;;;;;;5013420;28;19932;-75
2023/10/29 01:17:08;;;;;;;;;;;;;;;;;;5014257;28;20389;-76
2023/10/29 01:19:35;;;;;;;;;;;;;;;;;;5014339;28;20733;-76
2023/10/29 01:22:02;;;;;;;;;;;;;;;;;;5013614;28;20020;-75
2023/10/29 01:24:29;;;;;;;;;;;;;;;;;;5012077;28;19973;-75
2023/10/29 01:26:56;;;;;;;;;;;;;;;;;;5013208;28;19996;-75
2023/10/29 01:29:23;;;;;;;;;;;;;;;;;;5013239;28;19936;-76
2023/10/29 01:31:50;;;;;;;;;;;;;;;;;;5014195;28;20457;-75
2023/10/29 01:34:17;;;;;;;;;;;;;;;;;;5013763;28;20358;-76
2023/10/29 01:36:44;;;;;;;;;;;;;;;;;;5013604;28;20013;-77
2023/10/29 01:39:11;;;;;;;;;;;;;;;;;;5008443;28;19926;-75
2023/10/29 01:41:38;;;;;;;;;;;;;;;;;;4994481;28;19949;-75
2023/10/29 01:44:05;;;;;;;;;;;;;;;;;;4998394;28;19933;-75
2023/10/29 01:46:32;;;;;;;;;;;;;;;;;;5015935;28;20001;-75
2023/10/29 01:48:59;;;;;;;;;;;;;;;;;;5017477;28;19972;-76
2023/10/29 01:51:26;;;;;;;;;;;;;;;;;;5026298;28;19925;-76
2023/10/29 01:53:53;;;;;;;;;;;;;;;;;;5013332;28;20008;-76
2023/10/29 01:56:20;;;;;;;;;;;;;;;;;;5001306;28;20021;-75
2023/10/29 01:58:47;;;;;;;;;;;;;;;;;;5012378;28;19932;-76
2023/10/29 02:01:13;;;;;;;;;;;;;;;;;;5013665;28;20019;-75
2023/10/29 02:03:40;;;;;;;;;;;;;;;;;;5008965;28;19983;-76
2023/10/29 02:06:07;;;;;;;;;;;;;;;;;;5012844;28;19975;-77
2023/10/29 02:08:35;;;;;;;;;;;;;;;;;;5005710;28;19925;-78
2023/10/29 02:11:02;;;;;;;;;;;;;;;;;;5007664;28;20039;-78
2023/10/29 02:13:29;;;;;;;;;;;;;;;;;;5012005;28;19925;-78
2023/10/29 02:15:56;;;;;;;;;;;;;;;;;;5012527;28;19933;-79
2023/10/29 02:18:22;;;;;;;;;;;;;;;;;;5012672;28;20013;-78
2023/10/29 02:20:50;;;;;;;;;;;;;;;;;;5013139;28;20024;-78
2023/10/29 02:23:16;;;;;;;;;;;;;;;;;;5006448;28;19925;-78
2023/10/29 02:25:43;;;;;;;;;;;;;;;;;;4998011;28;19980;-79
2023/10/29 02:28:10;;;;;;;;;;;;;;;;;;5011399;28;20016;-78
2023/10/29 02:30:37;;;;;;;;;;;;;;;;;;5015108;28;19925;-78
2023/10/29 02:33:04;;;;;;;;;;;;;;;;;;5016110;28;19926;-79
2023/10/29 02:35:32;;;;;;;;;;;;;;;;;;5013096;28;20340;-77
2023/10/29 02:37:59;;;;;;;;;;;;;;;;;;5012383;28;19940;-78
2023/10/29 02:40:26;;;;;;;;;;;;;;;;;;5009143;28;20400;-76
2023/10/29 02:42:53;;;;;;;;;;;;;;;;;;5013102;28;19967;-76
2023/10/29 02:45:20;;;;;;;;;;;;;;;;;;4999303;28;20016;-77
2023/10/29 02:47:47;;;;;;;;;;;;;;;;;;5013222;28;19925;-76
2023/10/29 02:50:14;;;;;;;;;;;;;;;;;;5013459;28;19925;-78
2023/10/29 02:52:41;;;;;;;;;;;;;;;;;;5005784;28;20494;-77
2023/10/29 02:55:08;;;;;;;;;;;;;;;;;;5001200;28;19926;-77
2023/10/29 02:57:33;;;;;;;;;;;;;;;;;;5014590;28;19983;-78
2023/10/29 03:00:01;;;;;;;;;;;;;;;;;;5003121;28;19925;-79
2023/10/29 03:02:28;;;;;;;;;;;;;;;;;;5005426;28;19926;-77
2023/10/29 03:04:55;;;;;;;;;;;;;;;;;;5016193;28;19926;-78
2023/10/29 03:07:22;;;;;;;;;;;;;;;;;;5015999;28;20365;-78
2023/10/29 03:09:49;;;;;;;;;;;;;;;;;;5016088;28;19925;-77
2023/10/29 03:12:16;;;;;;;;;;;;;;;;;;5009614;28;19965;-77
2023/10/29 03:14:43;;;;;;;;;;;;;;;;;;5009550;28;20032;-77
2023/10/29 03:17:10;;;;;;;;;;;;;;;;;;5013849;28;20335;-79
2023/10/29 03:19:37;;;;;;;;;;;;;;;;;;5011303;28;20595;-78
2023/10/29 03:22:04;;;;;;;;;;;;;;;;;;5002122;28;19976;-76
2023/10/29 03:24:32;;;;;;;;;;;;;;;;;;5008987;28;20029;-78
2023/10/29 03:26:58;;;;;;;;;;;;;;;;;;5002530;28;19965;-77
2023/10/29 03:29:25;;;;;;;;;;;;;;;;;;5003705;28;19933;-77
2023/10/29 03:31:53;;;;;;;;;;;;;;;;;;5002588;28;19925;-76
2023/10/29 03:34:20;;;;;;;;;;;;;;;;;;5010762;28;20380;-76
2023/10/29 03:36:47;;;;;;;;;;;;;;;;;;5010446;28;19969;-77
2023/10/29 03:39:14;;;;;;;;;;;;;;;;;;5011816;28;19932;-77
2023/10/29 03:41:41;;;;;;;;;;;;;;;;;;5011072;28;19980;-77
2023/10/29 03:44:09;;;;;;;;;;;;;;;;;;5007922;28;19933;-79
2023/10/29 03:46:36;;;;;;;;;;;;;;;;;;5012486;28;19975;-79
2023/10/29 03:49:03;;;;;;;;;;;;;;;;;;5011934;28;20009;-78
2023/10/29 03:51:30;;;;;;;;;;;;;;;;;;5013084;28;20383;-78
2023/10/29 03:53:57;;;;;;;;;;;;;;;;;;5006501;28;20022;-77
2023/10/29 03:56:24;;;;;;;;;;;;;;;;;;4996412;28;20464;-78
2023/10/29 03:58:51;;;;;;;;;;;;;;;;;;5008735;28;19925;-79
2023/10/29 04:01:18;;;;;;;;;;;;;;;;;;5008099;28;19925;-77
2023/10/29 04:03:45;;;;;;;;;;;;;;;;;;5003617;28;19993;-78
2023/10/29 04:06:14;;;;;;;;;;;;;;;;;;5007422;28;20136;-77
2023/10/29 04:08:41;;;;;;;;;;;;;;;;;;5012108;28;19972;-76
2023/10/29 04:11:08;;;;;;;;;;;;;;;;;;5001580;28;19926;-77
2023/10/29 04:13:35;;;;;;;;;;;;;;;;;;5010257;28;19968;-78
2023/10/29 04:16:02;;;;;;;;;;;;;;;;;;5007360;28;20016;-79
2023/10/29 04:18:31;;;;;;;;;;;;;;;;;;5007378;28;20540;-80
2023/10/29 04:20:58;;;;;;;;;;;;;;;;;;5012892;28;19976;-80
2023/10/29 04:23:25;;;;;;;;;;;;;;;;;;5000049;28;19964;-79
2023/10/29 04:25:52;;;;;;;;;;;;;;;;;;5006318;28;20393;-78
2023/10/29 04:28:19;;;;;;;;;;;;;;;;;;5000296;28;19957;-79
2023/10/29 04:30:46;;;;;;;;;;;;;;;;;;5008613;28;19933;-76
2023/10/29 04:33:13;;;;;;;;;;;;;;;;;;5007682;28;19926;-76
2023/10/29 04:35:40;;;;;;;;;;;;;;;;;;5002309;28;20004;-77
2023/10/29 04:38:07;;;;;;;;;;;;;;;;;;5005716;28;19957;-79
2023/10/29 04:40:34;;;;;;;;;;;;;;;;;;5011746;28;19972;-78
2023/10/29 04:43:02;;;;;;;;;;;;;;;;;;5011733;28;19926;-77
2023/10/29 04:45:29;;;;;;;;;;;;;;;;;;5013481;28;20012;-77
2023/10/29 04:47:58;;;;;;;;;;;;;;;;;;5007644;28;19949;-78
2023/10/29 04:50:25;;;;;;;;;;;;;;;;;;5010265;28;20032;-75
2023/10/29 04:52:52;;;;;;;;;;;;;;;;;;5011792;28;20024;-77
2023/10/29 04:55:19;;;;;;;;;;;;;;;;;;5005633;28;19961;-75
2023/10/29 04:57:46;;;;;;;;;;;;;;;;;;5012196;28;20343;-77
2023/10/29 05:00:13;;;;;;;;;;;;;;;;;;5007308;28;20024;-76
2023/10/29 05:02:40;;;;;;;;;;;;;;;;;;5000870;28;20304;-76
2023/10/29 05:05:10;;;;;;;;;;;;;;;;;;5008768;28;19979;-75
2023/10/29 05:07:37;;;;;;;;;;;;;;;;;;5012430;28;20388;-76
2023/10/29 05:10:04;;;;;;;;;;;;;;;;;;5009387;28;19991;-75
2023/10/29 05:12:31;;;;;;;;;;;;;;;;;;5001482;28;19965;-75
2023/10/29 05:14:58;;;;;;;;;;;;;;;;;;5008943;28;20022;-76
2023/10/29 05:17:25;;;;;;;;;;;;;;;;;;5012339;28;20008;-77
2023/10/29 05:19:54;;;;;;;;;;;;;;;;;;5008811;28;19925;-76
2023/10/29 05:22:21;;;;;;;;;;;;;;;;;;5005268;28;19926;-76
2023/10/29 05:24:48;;;;;;;;;;;;;;;;;;5008313;28;19933;-75
2023/10/29 05:27:15;;;;;;;;;;;;;;;;;;5005666;28;20000;-77
2023/10/29 05:29:42;;;;;;;;;;;;;;;;;;4994461;28;20024;-76
2023/10/29 05:32:09;;;;;;;;;;;;;;;;;;5004664;28;20083;-77
2023/10/29 05:34:36;;;;;;;;;;;;;;;;;;5004688;28;20423;-77
2023/10/29 05:37:03;;;;;;;;;;;;;;;;;;4999270;28;20377;-76
2023/10/29 05:39:30;;;;;;;;;;;;;;;;;;4997810;28;19952;-77
2023/10/29 05:41:57;;;;;;;;;;;;;;;;;;5008075;28;19926;-77
2023/10/29 05:44:24;;;;;;;;;;;;;;;;;;5011873;28;19925;-76
2023/10/29 05:46:51;;;;;;;;;;;;;;;;;;5010451;28;19925;-77
2023/10/29 05:49:18;;;;;;;;;;;;;;;;;;5010430;28;19925;-77
2023/10/29 05:51:45;;;;;;;;;;;;;;;;;;5006148;28;19948;-76
2023/10/29 05:54:12;;;;;;;;;;;;;;;;;;5006684;28;19980;-76
2023/10/29 05:56:39;;;;;;;;;;;;;;;;;;5007096;28;19984;-77
2023/10/29 05:59:06;;;;;;;;;;;;;;;;;;5008316;28;19965;-76
2023/10/29 06:01:33;;;;;;;;;;;;;;;;;;5010115;28;19980;-75
2023/10/29 06:04:00;;;;;;;;;;;;;;;;;;5008852;28;19925;-75
2023/10/29 06:06:27;;;;;;;;;;;;;;;;;;5012874;28;19976;-74
2023/10/29 06:08:54;;;;;;;;;;;;;;;;;;5007100;28;19980;-74
2023/10/29 06:11:21;;;;;;;;;;;;;;;;;;5003281;28;19976;-75
2023/10/29 06:13:49;;;;;;;;;;;;;;;;;;5010245;28;20028;-73
2023/10/29 06:16:17;;;;;;;;;;;;;;;;;;5009045;28;19926;-74
2023/10/29 06:18:44;;;;;;;;;;;;;;;;;;5006722;28;20408;-74
2023/10/29 06:21:11;;;;;;;;;;;;;;;;;;5008301;28;20020;-74
2023/10/29 06:23:38;;;;;;;;;;;;;;;;;;5007740;28;19926;-73
2023/10/29 06:26:05;;;;;;;;;;;;;;;;;;5008688;28;19959;-74
2023/10/29 06:28:33;;;;;;;;;;;;;;;;;;5010631;28;20004;-74
2023/10/29 06:31:00;;;;;;;;;;;;;;;;;;5008700;28;20300;-74
2023/10/29 06:33:27;;;;;;;;;;;;;;;;;;5011018;28;19961;-74
2023/10/29 06:35:57;;;;;;;;;;;;;;;;;;5005989;28;20025;-74
2023/10/29 06:38:24;;;;;;;;;;;;;;;;;;5006412;28;19925;-75
2023/10/29 06:40:51;;;;;;;;;;;;;;;;;;5011285;28;19933;-72
2023/10/29 06:43:18;;;;;;;;;;;;;;;;;;5007940;28;20016;-70
2023/10/29 06:45:45;;;;;;;;;;;;;;;;;;5007663;28;20560;-70
2023/10/29 06:48:12;;;;;;;;;;;;;;;;;;5005804;28;19926;-69
2023/10/29 06:50:40;;;;;;;;;;;;;;;;;;5009868;28;19925;-70
2023/10/29 06:53:07;;;;;;;;;;;;;;;;;;5009502;28;19933;-69
2023/10/29 06:55:34;;;;;;;;;;;;;;;;;;5012389;28;20012;-69
2023/10/29 06:58:01;;;;;;;;;;;;;;;;;;5012480;28;19925;-69
2023/10/29 07:00:29;;;;;;;;;;;;;;;;;;5010759;28;20032;-69
2023/10/29 07:02:56;;;;;;;;;;;;;;;;;;5003707;28;20394;-69
2023/10/29 07:05:23;;;;;;;;;;;;;;;;;;5006762;28;19925;-69
2023/10/29 07:07:50;;;;;;;;;;;;;;;;;;5010533;28;19926;-71
2023/10/29 07:10:17;;;;;;;;;;;;;;;;;;5007031;28;19933;-71
2023/10/29 07:12:44;;;;;;;;;;;;;;;;;;5005514;28;19968;-73
2023/10/29 07:15:11;;;;;;;;;;;;;;;;;;5008902;28;20430;-73
2023/10/29 07:17:38;;;;;;;;;;;;;;;;;;5005480;28;20357;-71
2023/10/29 07:20:05;;;;;;;;;;;;;;;;;;4996705;28;20274;-72
2023/10/29 07:22:32;;;;;;;;;;;;;;;;;;5005099;28;19925;-72
2023/10/29 07:24:59;;;;;;;;;;;;;;;;;;5009933;28;19934;-72
2023/10/29 07:27:26;;;;;;;;;;;;;;;;;;4996385;28;20008;-72
2023/10/29 07:29:53;;;;;;;;;;;;;;;;;;5001828;28;20600;-72
2023/10/29 07:32:20;;;;;;;;;;;;;;;;;;5002974;28;19930;-72
2023/10/29 07:34:47;;;;;;;;;;;;;;;;;;5011381;28;20068;-72
2023/10/29 07:37:14;;;;;;;;;;;;;;;;;;5001739;28;19981;-72
2023/10/29 07:39:41;;;;;;;;;;;;;;;;;;5011885;28;20044;-72
2023/10/29 07:42:08;;;;;;;;;;;;;;;;;;4997726;28;19925;-72
2023/10/29 07:44:35;;;;;;;;;;;;;;;;;;5004421;28;19929;-72
2023/10/29 07:47:08;;;;;;;;;;;;;;;;;;5006795;28;19925;-72
2023/10/29 07:49:35;;;;;;;;;;;;;;;;;;4997876;28;19926;-72
2023/10/29 07:52:01;;;;;;;;;;;;;;;;;;5005152;28;20020;-72
2023/10/29 07:54:28;;;;;;;;;;;;;;;;;;5010381;28;19980;-71
2023/10/29 07:56:55;;;;;;;;;;;;;;;;;;5012382;28;19932;-71
2023/10/29 07:59:23;;;;;;;;;;;;;;;;;;5013183;28;19940;-72
2023/10/29 08:01:50;;;;;;;;;;;;;;;;;;5012540;28;20300;-73
2023/10/29 08:04:17;;;;;;;;;;;;;;;;;;5014745;28;20271;-71
2023/10/29 08:06:44;;;;;;;;;;;;;;;;;;5011963;28;19976;-71
2023/10/29 08:09:13;;;;;;;;;;;;;;;;;;5013274;28;19932;-71
2023/10/29 08:11:40;;;;;;;;;;;;;;;;;;5012095;28;19932;-70
2023/10/29 08:14:07;;;;;;;;;;;;;;;;;;5012290;28;20368;-72
2023/10/29 08:16:34;;;;;;;;;;;;;;;;;;5010217;28;19969;-70
2023/10/29 08:19:01;;;;;;;;;;;;;;;;;;5006535;28;20012;-70
2023/10/29 08:21:28;;;;;;;;;;;;;;;;;;5005325;28;19938;-71
2023/10/29 08:23:55;;;;;;;;;;;;;;;;;;4997235;28;20288;-72
2023/10/29 08:26:23;;;;;;;;;;;;;;;;;;5018453;28;19976;-71
2023/10/29 08:28:50;;;;;;;;;;;;;;;;;;5005335;28;19985;-71
2023/10/29 08:31:17;;;;;;;;;;;;;;;;;;5010340;28;19988;-71
2023/10/29 08:33:44;;;;;;;;;;;;;;;;;;5012569;28;19972;-70
2023/10/29 08:36:11;;;;;;;;;;;;;;;;;;5011735;28;19991;-70
2023/10/29 08:38:38;;;;;;;;;;;;;;;;;;5014774;28;19933;-70
2023/10/29 08:41:05;;;;;;;;;;;;;;;;;;5010917;28;19925;-70
2023/10/29 08:43:32;;;;;;;;;;;;;;;;;;5011636;28;19988;-71
2023/10/29 08:45:59;;;;;;;;;;;;;;;;;;5011186;28;19926;-71
2023/10/29 08:48:26;;;;;;;;;;;;;;;;;;5019793;28;19925;-71
2023/10/29 08:50:53;;;;;;;;;;;;;;;;;;5011975;28;20008;-70
2023/10/29 08:53:20;;;;;;;;;;;;;;;;;;5016035;28;19925;-71
2023/10/29 08:55:47;;;;;;;;;;;;;;;;;;5011808;28;20035;-71
2023/10/29 08:58:14;;;;;;;;;;;;;;;;;;5011203;28;20015;-71
2023/10/29 09:00:41;;;;;;;;;;;;;;;;;;5016432;28;19932;-71
2023/10/29 09:03:08;;;;;;;;;;;;;;;;;;5013249;28;19925;-71
2023/10/29 09:05:35;;;;;;;;;;;;;;;;;;5012543;28;19925;-71
2023/10/29 09:08:02;;;;;;;;;;;;;;;;;;5010084;28;19925;-71
2023/10/29 09:10:29;;;;;;;;;;;;;;;;;;5015566;28;19968;-71
2023/10/29 09:12:56;;;;;;;;;;;;;;;;;;5007667;28;19957;-72
2023/10/29 09:15:23;;;;;;;;;;;;;;;;;;5018189;28;19948;-71
2023/10/29 09:17:50;;;;;;;;;;;;;;;;;;5018504;28;20020;-71
2023/10/29 09:20:18;;;;;;;;;;;;;;;;;;5011499;28;20025;-71
2023/10/29 09:22:46;;;;;;;;;;;;;;;;;;5013166;28;19926;-71
2023/10/29 09:25:13;;;;;;;;;;;;;;;;;;5022354;28;20056;-72
2023/10/29 09:27:41;;;;;;;;;;;;;;;;;;5012885;28;19925;-72
2023/10/29 09:30:08;;;;;;;;;;;;;;;;;;5011715;28;19953;-71
2023/10/29 09:32:35;;;;;;;;;;;;;;;;;;5017243;28;20397;-71
2023/10/29 09:35:04;;;;;;;;;;;;;;;;;;5029538;28;20289;-72
2023/10/29 09:37:32;;;;;;;;;;;;;;;;;;5010900;28;20278;-71
2023/10/29 09:39:59;;;;;;;;;;;;;;;;;;5012957;28;19953;-71
2023/10/29 09:42:26;;;;;;;;;;;;;;;;;;5013857;28;19964;-70
2023/10/29 09:44:53;;;;;;;;;;;;;;;;;;5019856;28;20339;-71
2023/10/29 09:47:20;;;;;;;;;;;;;;;;;;5012465;28;20356;-71
2023/10/29 09:49:47;;;;;;;;;;;;;;;;;;5010442;28;20028;-71
2023/10/29 09:52:14;;;;;;;;;;;;;;;;;;5010733;28;19937;-72
2023/10/29 09:54:41;;;;;;;;;;;;;;;;;;5005497;28;19941;-73
2023/10/29 09:57:08;;;;;;;;;;;;;;;;;;5009000;28;20011;-72
2023/10/29 09:59:35;;;;;;;;;;;;;;;;;;5003721;28;19984;-72
2023/10/29 10:02:02;;;;;;;;;;;;;;;;;;5025731;28;20384;-71
2023/10/29 10:04:29;;;;;;;;;;;;;;;;;;5008591;28;19932;-72
2023/10/29 10:06:56;;;;;;;;;;;;;;;;;;5007667;28;19940;-71
2023/10/29 10:09:23;;;;;;;;;;;;;;;;;;5008273;28;19935;-71
2023/10/29 10:11:51;;;;;;;;;;;;;;;;;;5009773;28;20214;-72
2023/10/29 10:14:18;;;;;;;;;;;;;;;;;;5011072;28;19926;-72
2023/10/29 10:16:46;;;;;;;;;;;;;;;;;;5010031;28;20460;-72
2023/10/29 10:19:13;;;;;;;;;;;;;;;;;;5011607;28;20403;-71
2023/10/29 10:21:40;;;;;;;;;;;;;;;;;;5007966;28;19933;-72
2023/10/29 10:24:07;;;;;;;;;;;;;;;;;;5006952;28;20467;-71
2023/10/29 10:26:34;;;;;;;;;;;;;;;;;;5011782;28;19929;-72
2023/10/29 10:29:01;;;;;;;;;;;;;;;;;;5012155;28;20304;-72
2023/10/29 10:31:28;;;;;;;;;;;;;;;;;;5010711;28;20547;-71
2023/10/29 10:33:55;;;;;;;;;;;;;;;;;;5011758;28;20292;-72
2023/10/29 10:36:22;;;;;;;;;;;;;;;;;;5006604;28;19972;-71
2023/10/29 10:38:49;;;;;;;;;;;;;;;;;;5011731;28;19980;-71
2023/10/29 10:41:16;;;;;;;;;;;;;;;;;;5010753;28;19926;-71
2023/10/29 10:43:43;;;;;;;;;;;;;;;;;;5011659;28;19976;-71
2023/10/29 10:46:10;;;;;;;;;;;;;;;;;;5007809;28;19926;-72
2023/10/29 10:48:37;;;;;;;;;;;;;;;;;;5011898;28;19925;-71
2023/10/29 10:51:05;;;;;;;;;;;;;;;;;;5011915;28;20292;-72
2023/10/29 10:53:32;;;;;;;;;;;;;;;;;;5014649;28;20304;-72
2023/10/29 10:55:59;;;;;;;;;;;;;;;;;;5014395;28;20443;-73
2023/10/29 10:58:26;;;;;;;;;;;;;;;;;;5015305;28;19964;-72
2023/10/29 11:00:53;;;;;;;;;;;;;;;;;;5012885;28;20016;-72
2023/10/29 11:03:20;;;;;;;;;;;;;;;;;;5013196;28;19932;-71
2023/10/29 11:05:47;;;;;;;;;;;;;;;;;;5014484;28;19968;-72
2023/10/29 11:08:16;;;;;;;;;;;;;;;;;;5014847;28;19980;-72
2023/10/29 11:10:44;;;;;;;;;;;;;;;;;;5015196;28;19972;-72
2023/10/29 11:13:10;;;;;;;;;;;;;;;;;;5012506;28;20376;-72
2023/10/29 11:15:37;;;;;;;;;;;;;;;;;;5008625;28;20448;-72
2023/10/29 11:18:04;;;;;;;;;;;;;;;;;;5008793;28;20364;-72
2023/10/29 11:20:30;;;;;;;;;;;;;;;;;;5014919;28;20372;-72
2023/10/29 11:22:57;;;;;;;;;;;;;;;;;;5013892;28;19961;-72
2023/10/29 11:25:23;;;;;;;;;;;;;;;;;;5011402;28;20020;-71
2023/10/29 11:27:50;;;;;;;;;;;;;;;;;;5011832;28;19961;-70
2023/10/29 11:30:17;;;;;;;;;;;;;;;;;;5011648;28;20380;-71
2023/10/29 11:32:44;;;;;;;;;;;;;;;;;;5013323;28;20099;-71
2023/10/29 11:35:11;;;;;;;;;;;;;;;;;;5006138;28;19926;-71
2023/10/29 11:37:39;;;;;;;;;;;;;;;;;;5012970;28;19965;-71
2023/10/29 11:40:06;;;;;;;;;;;;;;;;;;5013831;28;19929;-71
2023/10/29 11:42:33;;;;;;;;;;;;;;;;;;5012307;28;19980;-71
2023/10/29 11:45:00;;;;;;;;;;;;;;;;;;5012905;28;19929;-72
2023/10/29 11:47:27;;;;;;;;;;;;;;;;;;5013271;28;19971;-71
2023/10/29 11:49:54;;;;;;;;;;;;;;;;;;5015300;28;20016;-72
2023/10/29 11:52:21;;;;;;;;;;;;;;;;;;5028242;28;19999;-72
2023/10/29 11:54:47;;;;;;;;;;;;;;;;;;5014664;28;20000;-72
2023/10/29 11:57:14;;;;;;;;;;;;;;;;;;5011363;28;20012;-72
2023/10/29 11:59:41;;;;;;;;;;;;;;;;;;5013840;28;19931;-72
2023/10/29 12:02:08;;;;;;;;;;;;;;;;;;5011247;28;19939;-72
2023/10/29 12:04:35;;;;;;;;;;;;;;;;;;5012298;28;20004;-72
2023/10/29 12:07:02;;;;;;;;;;;;;;;;;;5013100;28;19936;-72
2023/10/29 12:09:32;;;;;;;;;;;;;;;;;;5013412;28;20277;-70
2023/10/29 12:11:59;;;;;;;;;;;;;;;;;;5013492;28;19975;-71
2023/10/29 12:14:26;;;;;;;;;;;;;;;;;;5010519;28;19935;-71
2023/10/29 12:16:53;;;;;;;;;;;;;;;;;;5010500;28;20036;-73
2023/10/29 12:19:21;;;;;;;;;;;;;;;;;;5012538;28;20016;-71
2023/10/29 12:21:48;;;;;;;;;;;;;;;;;;5008990;28;19939;-71
2023/10/29 12:24:15;;;;;;;;;;;;;;;;;;5000135;28;20426;-72
2023/10/29 12:26:42;;;;;;;;;;;;;;;;;;5013837;28;19961;-72
2023/10/29 12:29:09;;;;;;;;;;;;;;;;;;5017370;28;20004;-72
2023/10/29 12:31:36;;;;;;;;;;;;;;;;;;5016553;28;19940;-72
2023/10/29 12:34:03;;;;;;;;;;;;;;;;;;5009799;28;19925;-72
2023/10/29 12:36:30;;;;;;;;;;;;;;;;;;5025314;28;19928;-72
2023/10/29 12:38:58;;;;;;;;;;;;;;;;;;5006769;28;20039;-72
2023/10/29 12:41:27;;;;;;;;;;;;;;;;;;4996185;28;19937;-72
2023/10/29 12:43:54;;;;;;;;;;;;;;;;;;5000058;28;19933;-72
2023/10/29 12:46:21;;;;;;;;;;;;;;;;;;5012312;28;20012;-72
2023/10/29 12:48:47;;;;;;;;;;;;;;;;;;5015390;28;20357;-71
2023/10/29 12:51:14;;;;;;;;;;;;;;;;;;5012122;28;19947;-72
2023/10/29 12:53:41;;;;;;;;;;;;;;;;;;5010911;28;19926;-72
2023/10/29 12:56:08;;;;;;;;;;;;;;;;;;5002902;28;19956;-72
2023/10/29 12:58:35;;;;;;;;;;;;;;;;;;5009549;28;19953;-73
2023/10/29 13:01:05;;;;;;;;;;;;;;;;;;5010073;28;19926;-72
2023/10/29 13:03:32;;;;;;;;;;;;;;;;;;5011889;28;19932;-73
2023/10/29 13:05:59;;;;;;;;;;;;;;;;;;5010248;28;19993;-73
2023/10/29 13:08:25;;;;;;;;;;;;;;;;;;5012801;28;20363;-73
2023/10/29 13:10:53;;;;;;;;;;;;;;;;;;5011062;28;19964;-72
2023/10/29 13:13:22;;;;;;;;;;;;;;;;;;5012547;28;20458;-72
2023/10/29 13:15:49;;;;;;;;;;;;;;;;;;5011416;28;19984;-73
2023/10/29 13:18:18;;;;;;;;;;;;;;;;;;5010295;28;19968;-73
2023/10/29 13:20:45;;;;;;;;;;;;;;;;;;5012811;28;19926;-73
2023/10/29 13:23:12;;;;;;;;;;;;;;;;;;5011430;28;20101;-74
2023/10/29 13:25:39;;;;;;;;;;;;;;;;;;5009935;28;20032;-73
2023/10/29 13:28:06;;;;;;;;;;;;;;;;;;5009545;28;20033;-73
2023/10/29 13:30:33;;;;;;;;;;;;;;;;;;5011418;28;20020;-72
2023/10/29 13:33:00;;;;;;;;;;;;;;;;;;5010922;28;19956;-73
2023/10/29 13:35:27;;;;;;;;;;;;;;;;;;5011387;28;19931;-73
2023/10/29 13:37:54;;;;;;;;;;;;;;;;;;5011919;28;19964;-72
2023/10/29 13:40:21;;;;;;;;;;;;;;;;;;5010219;28;19932;-72
2023/10/29 13:42:48;;;;;;;;;;;;;;;;;;5003470;28;19925;-69
2023/10/29 13:45:15;;;;;;;;;;;;;;;;;;5009837;28;19983;-70
2023/10/29 13:47:42;;;;;;;;;;;;;;;;;;5011812;28;20412;-70
2023/10/29 13:50:09;;;;;;;;;;;;;;;;;;5011880;28;19925;-72
2023/10/29 13:52:37;;;;;;;;;;;;;;;;;;5012705;28;20016;-71
2023/10/29 13:55:04;;;;;;;;;;;;;;;;;;5011171;28;19925;-72
2023/10/29 13:57:31;;;;;;;;;;;;;;;;;;5007840;28;19926;-71
2023/10/29 13:59:58;;;;;;;;;;;;;;;;;;4993784;28;19926;-72
2023/10/29 14:02:25;;;;;;;;;;;;;;;;;;5012347;28;20012;-72
2023/10/29 14:04:52;;;;;;;;;;;;;;;;;;5012324;28;19926;-72
2023/10/29 14:07:19;;;;;;;;;;;;;;;;;;5011483;28;19929;-72
2023/10/29 14:09:46;;;;;;;;;;;;;;;;;;5011105;28;20023;-72
2023/10/29 14:12:13;;;;;;;;;;;;;;;;;;5011550;28;19972;-71
2023/10/29 14:14:40;;;;;;;;;;;;;;;;;;5010094;28;20012;-70
2023/10/29 14:17:07;;;;;;;;;;;;;;;;;;5006978;28;20027;-71
2023/10/29 14:19:35;;;;;;;;;;;;;;;;;;5012072;28;19932;-71
2023/10/29 14:22:02;;;;;;;;;;;;;;;;;;5010799;28;19926;-71
2023/10/29 14:24:30;;;;;;;;;;;;;;;;;;5012149;28;19988;-71
2023/10/29 14:26:58;;;;;;;;;;;;;;;;;;5013116;28;20016;-72
2023/10/29 14:29:25;;;;;;;;;;;;;;;;;;5015993;28;19932;-71
2023/10/29 14:31:53;;;;;;;;;;;;;;;;;;5008895;28;20454;-71
2023/10/29 14:34:19;;;;;;;;;;;;;;;;;;5013264;28;19932;-71
2023/10/29 14:36:46;;;;;;;;;;;;;;;;;;5012907;28;20016;-71
2023/10/29 14:39:14;;;;;;;;;;;;;;;;;;5012993;28;20016;-71
2023/10/29 14:41:41;;;;;;;;;;;;;;;;;;5014939;28;19932;-71
2023/10/29 14:44:09;;;;;;;;;;;;;;;;;;5011744;28;20438;-71
2023/10/29 14:46:36;;;;;;;;;;;;;;;;;;5014005;28;20420;-71
2023/10/29 14:49:03;;;;;;;;;;;;;;;;;;5013935;28;20277;-71
2023/10/29 14:51:30;;;;;;;;;;;;;;;;;;5015459;28;20008;-71
2023/10/29 14:53:57;;;;;;;;;;;;;;;;;;5014598;28;20033;-71
2023/10/29 14:56:24;;;;;;;;;;;;;;;;;;5011392;28;19933;-71
2023/10/29 14:58:51;;;;;;;;;;;;;;;;;;5008638;28;19925;-72
2023/10/29 15:01:18;;;;;;;;;;;;;;;;;;5009099;28;19929;-72
2023/10/29 15:03:45;;;;;;;;;;;;;;;;;;5010805;28;19970;-71
2023/10/29 15:06:12;;;;;;;;;;;;;;;;;;5006639;28;19963;-72
2023/10/29 15:08:39;;;;;;;;;;;;;;;;;;5009563;28;19957;-72
2023/10/29 15:11:06;;;;;;;;;;;;;;;;;;5016301;28;19926;-72
2023/10/29 15:13:33;;;;;;;;;;;;;;;;;;5002298;28;20008;-73
2023/10/29 15:16:00;;;;;;;;;;;;;;;;;;5001412;28;19983;-72
2023/10/29 15:18:27;;;;;;;;;;;;;;;;;;5008502;28;20222;-72
2023/10/29 15:20:54;;;;;;;;;;;;;;;;;;5019148;28;19925;-72
2023/10/29 15:23:21;;;;;;;;;;;;;;;;;;5005851;28;19965;-73
2023/10/29 15:25:48;;;;;;;;;;;;;;;;;;5009193;28;19991;-71
2023/10/29 15:28:15;;;;;;;;;;;;;;;;;;5008228;28;20015;-71
2023/10/29 15:30:42;;;;;;;;;;;;;;;;;;5011152;28;20025;-71
2023/10/29 15:33:09;;;;;;;;;;;;;;;;;;5008594;28;20039;-71
2023/10/29 15:35:36;;;;;;;;;;;;;;;;;;5003688;28;20016;-73
2023/10/29 15:38:04;;;;;;;;;;;;;;;;;;5003146;28;19932;-71
2023/10/29 15:40:31;;;;;;;;;;;;;;;;;;5011494;28;19931;-71
2023/10/29 15:42:58;;;;;;;;;;;;;;;;;;5010058;28;20418;-71
2023/10/29 15:45:25;;;;;;;;;;;;;;;;;;5005283;28;19980;-72
2023/10/29 15:47:52;;;;;;;;;;;;;;;;;;5013984;28;20024;-71
2023/10/29 15:50:19;;;;;;;;;;;;;;;;;;5008521;28;19926;-71
2023/10/29 15:52:46;;;;;;;;;;;;;;;;;;5012902;28;19925;-72
2023/10/29 15:55:13;;;;;;;;;;;;;;;;;;5007622;28;20020;-71
2023/10/29 15:57:40;;;;;;;;;;;;;;;;;;5012925;28;19925;-72
2023/10/29 16:00:08;;;;;;;;;;;;;;;;;;5014939;28;20020;-73
2023/10/29 16:02:36;;;;;;;;;;;;;;;;;;4947592;28;1872468;-72
2023/10/29 16:05:03;;;;;;;;;;;;;;;;;;5013620;28;20299;-72
2023/10/29 16:07:30;;;;;;;;;;;;;;;;;;5012674;28;19926;-72
2023/10/29 16:09:57;;;;;;;;;;;;;;;;;;5012759;28;19930;-72
2023/10/29 16:12:24;;;;;;;;;;;;;;;;;;5010245;28;20384;-72
2023/10/29 16:14:51;;;;;;;;;;;;;;;;;;5011584;28;19983;-72
2023/10/29 16:17:18;;;;;;;;;;;;;;;;;;5011213;28;19926;-72
2023/10/29 16:19:45;;;;;;;;;;;;;;;;;;5011801;28;20085;-72
2023/10/29 16:22:13;;;;;;;;;;;;;;;;;;5001308;28;20105;-72
2023/10/29 16:24:40;;;;;;;;;;;;;;;;;;5009277;28;19992;-72
2023/10/29 16:27:07;;;;;;;;;;;;;;;;;;5000754;28;20220;-72
2023/10/29 16:29:34;;;;;;;;;;;;;;;;;;5013090;28;20075;-72
2023/10/29 16:32:04;;;;;;;;;;;;;;;;;;5006484;28;19925;-72
2023/10/29 16:34:31;;;;;;;;;;;;;;;;;;5008707;28;19926;-72
2023/10/29 16:36:59;;;;;;;;;;;;;;;;;;5003504;28;20385;-72
2023/10/29 16:39:27;;;;;;;;;;;;;;;;;;5007516;28;20361;-72
2023/10/29 16:41:54;;;;;;;;;;;;;;;;;;5008642;28;19925;-72
2023/10/29 16:44:20;;;;;;;;;;;;;;;;;;5010571;28;20016;-71